Detalii statie CORIPLANT MIHALT [0000197B]

Toti senzorii

Date Temperatura solului [C]Precipitatii [mm]Voltaj baterie [mV]Leaf Wetness [Min]HC Air temperature [C]HC Relative humidity [%]Punctul de roua [C]
medieminmaxsumaultimatimpmedieminmaxmediemediemin
2018-10-13 16:00:00 0 7176 22.79 22.03 23.81 0 0 0
2018-10-13 17:00:00 0 7040 21.12 20.05 22.3 0 0 0
2018-10-13 18:00:00 0 6904 16.71 13.69 19.82 0 0 0
2018-10-13 19:00:00 0 6894 11.52 10.56 13.26 0 0 0
2018-10-13 20:00:00 0 6854 10.62 9.86 11.11 0 0 0
2018-10-13 21:00:00 0 6844 8.87 8.47 9.71 0 0 0
2018-10-13 22:00:00 0 6834 7.77 7.49 8.36 0 0 0
2018-10-13 23:00:00 0 6834 6.19 5.22 7.2 0 0 0
2018-10-14 00:00:00 0 6826 5.28 5.08 5.64 0 0 0
2018-10-14 01:00:00 0 6816 4.53 4.28 5.11 0 0 0
2018-10-14 02:00:00 0 6806 4.01 3.5 4.36 66.66 2.6 0
2018-10-14 03:00:00 0 6748 3.24 2.72 3.84 83.33 2.6 0
2018-10-14 04:00:00 0 6748 2.27 1.96 2.68 91.66 0
2018-10-14 05:00:00 0 6748 2.08 1.81 2.37 97.55 1.6 -0.3
2018-10-14 06:00:00 0 6728 1.47 0.92 1.99 63.44 0.3 0
2018-10-14 07:00:00 0 6738 0.67 0.19 1.05 43.99 -0.7 0
2018-10-14 08:00:00 0 6786 1.12 0.04 2.32 5.12 0
2018-10-14 09:00:00 0 6904 3.99 2.55 5.75 0 0 0
2018-10-14 10:00:00 0 7020 9 6.3 10.23 33.33 3.3 0
2018-10-14 11:00:00 0 7030 14.28 10.57 16.79 33.33 3.9 0
2018-10-14 12:00:00 0 7088 18.11 17.03 18.94 0 0 0
2018-10-14 13:00:00 0 7196 20.56 19.63 21.6 0 0 0
2018-10-14 14:00:00 0 7186 22.25 21.04 23.38 0 0 0
2018-10-14 15:00:00 0 7186 22.33 21.49 23.46 0 0 0
2018-10-14 16:00:00 0 7186 21.91 21.49 22.41 0 0 0
2018-10-14 17:00:00 0 7040 20.67 19.37 21.42 0 0 0
2018-10-14 18:00:00 0 6922 15.48 12.39 18.92 0 0 0
2018-10-14 19:00:00 0 6894 10.48 9.62 11.95 0 0 0
2018-10-14 20:00:00 0 6854 8.57 7.88 9.54 0 0 0
2018-10-14 21:00:00 0 6854 6.41 4.94 8.09 0 0 0
2018-10-14 22:00:00 0 6844 5.54 4.83 6.34 0 0 0
2018-10-14 23:00:00 0 6834 4.77 4.13 5.78 0 0 0
2018-10-15 00:00:00 0 6834 3.79 3.59 3.97 0 0 0
2018-10-15 01:00:00 0 6826 3.5 2.9 3.94 66.66 2.2 0
2018-10-15 02:00:00 0 6826 2.22 1.82 2.75 100 2.1 1.8
2018-10-15 03:00:00 0 6816 1.28 1.05 1.64 100 1.2 1
2018-10-15 04:00:00 0 6816 0.91 0.56 1.18 100 0.8 0.5
2018-10-15 05:00:00 0 6806 -0.12 -0.47 0.42 100 0 -0.3
2018-10-15 06:00:00 0 6796 -0.17 -0.85 0.58 100 -0.1 -0.7
2018-10-15 07:00:00 0 6816 -1.21 -1.45 -0.93 91.66 0
2018-10-15 08:00:00 0 6864 -0.21 -1.31 0.6 100 -0.1 -1.2
2018-10-15 09:00:00 0 7020 2.4 0.65 4.55 100 2.3 0.6
2018-10-15 10:00:00 0 7060 9.67 5.29 13.29 100 9.6 5.2
2018-10-15 11:00:00 0 7176 16.28 13.9 18.35 24.9 0
2018-10-15 12:00:00 0 7138 18.87 17.79 21.41 0 0 0
2018-10-15 13:00:00 0 7196 21.43 19.96 22.6 0 0 0
2018-10-15 14:00:00 0 7186 23.68 22.74 24.34 0 0 0
2018-10-15 15:00:00 0 7176 24.2 23.35 24.66 8.33 0